createdAt,value
2023-02-08T00:02:21.784Z,-3.84
2023-02-08T00:04:49.589Z,-3.73
2023-02-08T00:07:17.359Z,-3.81
2023-02-08T00:09:45.101Z,-3.76
2023-02-08T00:12:14.239Z,-3.75
2023-02-08T00:14:42.036Z,-3.85
2023-02-08T00:17:09.854Z,-3.80
2023-02-08T00:19:37.634Z,-3.78
2023-02-08T00:22:05.536Z,-3.88
2023-02-08T00:24:33.348Z,-3.94
2023-02-08T00:27:01.087Z,-3.97
2023-02-08T00:29:30.209Z,-3.99
2023-02-08T00:31:59.169Z,-3.95
2023-02-08T00:34:26.911Z,-4.02
2023-02-08T00:36:54.634Z,-3.99
2023-02-08T00:39:24.444Z,-4.04
2023-02-08T00:41:52.948Z,-4.02
2023-02-08T00:44:20.824Z,-4.16
2023-02-08T00:46:49.954Z,-4.26
2023-02-08T00:49:18.583Z,-4.31
2023-02-08T00:51:46.382Z,-4.37
2023-02-08T00:54:15.823Z,-4.46
2023-02-08T00:56:45.079Z,-4.41
2023-02-08T00:59:13.335Z,-4.47
2023-02-08T01:01:42.468Z,-4.48
2023-02-08T01:04:11.652Z,-4.43
2023-02-08T01:06:39.927Z,-4.37
2023-02-08T01:09:07.649Z,-4.40
2023-02-08T01:11:35.610Z,-4.37
2023-02-08T01:14:03.398Z,-4.38
2023-02-08T01:16:33.750Z,-4.34
2023-02-08T01:19:03.540Z,-4.43
2023-02-08T01:21:35.068Z,-4.47
2023-02-08T01:24:03.652Z,-4.49
2023-02-08T01:26:32.002Z,-4.53
2023-02-08T01:29:00.770Z,-4.45
2023-02-08T01:31:31.430Z,-4.39
2023-02-08T01:34:02.217Z,-4.34
2023-02-08T01:36:33.006Z,-4.31
2023-02-08T01:39:01.568Z,-4.44
2023-02-08T01:41:32.111Z,-4.54
2023-02-08T01:44:07.132Z,-4.55
2023-02-08T01:46:36.454Z,-4.56
2023-02-08T01:49:09.566Z,-4.51
2023-02-08T01:51:41.855Z,-4.52
2023-02-08T01:54:12.498Z,-4.51
2023-02-08T01:56:45.626Z,-4.62
2023-02-08T01:59:18.353Z,-4.56
2023-02-08T02:01:49.148Z,-4.60
2023-02-08T02:04:17.389Z,-4.54
2023-02-08T02:06:49.691Z,-4.53
2023-02-08T02:09:21.901Z,-4.52
2023-02-08T02:11:50.874Z,-4.53
2023-02-08T02:14:19.594Z,-4.55
2023-02-08T02:16:47.713Z,-4.62
2023-02-08T02:19:27.052Z,-4.60
2023-02-08T02:22:08.291Z,-4.62
2023-02-08T02:25:04.481Z,-4.64
2023-02-08T02:28:09.758Z,-4.59
2023-02-08T02:31:01.178Z,-4.60
2023-02-08T02:33:44.131Z,-4.59
2023-02-08T02:36:19.970Z,-4.59
2023-02-08T02:38:57.691Z,-4.67
2023-02-08T02:41:52.101Z,-4.68
2023-02-08T02:44:25.962Z,-4.72
2023-02-08T02:47:03.678Z,-4.72
2023-02-08T02:49:40.127Z,-4.69
2023-02-08T02:52:13.129Z,-4.71
2023-02-08T02:54:46.235Z,-4.70
2023-02-08T02:57:18.553Z,-4.70
2023-02-08T02:59:46.914Z,-4.77
2023-02-08T03:02:15.500Z,-4.84
2023-02-08T03:04:54.307Z,-4.83
2023-02-08T03:07:49.054Z,-4.83
2023-02-08T03:10:30.970Z,-4.88
2023-02-08T03:13:04.714Z,-4.89
2023-02-08T03:15:43.885Z,-4.96
2023-02-08T03:18:25.566Z,-4.95
2023-02-08T03:21:02.398Z,-4.93
2023-02-08T03:23:33.222Z,-5.00
2023-02-08T03:26:06.774Z,-5.02
2023-02-08T03:28:41.557Z,-4.95
2023-02-08T03:31:16.360Z,-4.97
2023-02-08T03:33:50.322Z,-4.95
2023-02-08T03:36:24.928Z,-5.03
2023-02-08T03:38:55.583Z,-5.02
2023-02-08T03:41:29.194Z,-5.02
2023-02-08T03:44:01.395Z,-4.99
2023-02-08T03:46:33.282Z,-4.99
2023-02-08T03:49:06.078Z,-5.00
2023-02-08T03:51:37.159Z,-5.01
2023-02-08T03:54:09.242Z,-5.15
2023-02-08T03:56:44.042Z,-5.09
2023-02-08T03:59:15.117Z,-5.09
2023-02-08T04:01:46.365Z,-5.09
2023-02-08T04:04:16.299Z,-5.15
2023-02-08T04:06:45.846Z,-5.09
2023-02-08T04:09:13.657Z,-5.11
2023-02-08T04:11:41.474Z,-5.13
2023-02-08T04:14:09.261Z,-5.13
2023-02-08T04:16:37.030Z,-5.20
2023-02-08T04:19:04.763Z,-5.16
2023-02-08T04:21:33.262Z,-5.11
2023-02-08T04:24:02.485Z,-5.06
2023-02-08T04:26:30.293Z,-5.04
2023-02-08T04:28:58.026Z,-5.17
2023-02-08T04:31:25.978Z,-5.18
2023-02-08T04:33:53.809Z,-5.22
2023-02-08T04:36:21.812Z,-5.24
2023-02-08T04:38:49.794Z,-5.16
2023-02-08T04:41:18.891Z,-5.20
2023-02-08T04:43:46.697Z,-5.23
2023-02-08T04:46:14.454Z,-5.22
2023-02-08T04:48:42.257Z,-5.19
2023-02-08T04:51:10.013Z,-5.17
2023-02-08T04:53:37.789Z,-5.19
2023-02-08T04:56:06.085Z,-5.21
2023-02-08T04:58:35.234Z,-5.20
2023-02-08T05:01:06.548Z,-5.20
2023-02-08T05:03:34.345Z,-5.18
2023-02-08T05:06:02.236Z,-5.20
2023-02-08T05:08:29.977Z,-5.28
2023-02-08T05:10:57.758Z,-5.27
2023-02-08T05:13:25.539Z,-5.28
2023-02-08T05:15:54.721Z,-5.25
2023-02-08T05:18:22.463Z,-5.21
2023-02-08T05:20:56.604Z,-5.20
2023-02-08T05:23:24.873Z,-5.23
2023-02-08T05:25:52.649Z,-5.17
2023-02-08T05:28:21.329Z,-5.18
2023-02-08T05:30:49.582Z,-5.22
2023-02-08T05:33:19.591Z,-5.22
2023-02-08T05:35:47.400Z,-5.23
2023-02-08T05:38:15.383Z,-5.22
2023-02-08T05:40:43.483Z,-5.28
2023-02-08T05:43:11.235Z,-5.26
2023-02-08T05:45:39.002Z,-5.28
2023-02-08T05:48:07.014Z,-5.34
2023-02-08T05:50:36.114Z,-5.32
2023-02-08T05:53:04.101Z,-5.31
2023-02-08T05:55:32.020Z,-5.32
2023-02-08T05:57:59.758Z,-5.34
2023-02-08T06:00:27.755Z,-5.31
2023-02-08T06:02:55.500Z,-5.32
2023-02-08T06:05:23.486Z,-5.36
2023-02-08T06:07:52.577Z,-5.33
2023-02-08T06:10:20.454Z,-5.33
2023-02-08T06:12:48.229Z,-5.31
2023-02-08T06:15:19.604Z,-5.28
2023-02-08T06:17:47.396Z,-5.27
2023-02-08T06:20:15.229Z,-5.25
2023-02-08T06:22:43.005Z,-5.30
2023-02-08T06:25:12.156Z,-5.33
2023-02-08T06:27:40.039Z,-5.33
2023-02-08T06:30:08.265Z,-5.38
2023-02-08T06:32:36.148Z,-5.42
2023-02-08T06:35:04.273Z,-5.40
2023-02-08T06:37:32.047Z,-5.49
2023-02-08T06:40:01.826Z,-5.47
2023-02-08T06:42:31.410Z,-5.44
2023-02-08T06:44:59.347Z,-5.50
2023-02-08T06:47:28.044Z,-5.50
2023-02-08T06:49:55.949Z,-5.42
2023-02-08T06:52:23.808Z,-5.42
2023-02-08T06:54:51.565Z,-5.46
2023-02-08T06:57:19.387Z,-5.45
2023-02-08T06:59:48.631Z,-5.47
2023-02-08T07:02:18.059Z,-5.42
2023-02-08T07:04:46.334Z,-5.41
2023-02-08T07:07:14.542Z,-5.40
2023-02-08T07:09:42.608Z,-5.47
2023-02-08T07:12:11.093Z,-5.39
2023-02-08T07:14:41.460Z,-5.43
2023-02-08T07:17:11.784Z,-5.38
2023-02-08T07:19:40.134Z,-5.41
2023-02-08T07:22:09.076Z,-5.37
2023-02-08T07:24:37.702Z,-5.35
2023-02-08T07:27:07.024Z,-5.37
2023-02-08T07:29:35.498Z,-5.47
2023-02-08T07:32:03.553Z,-5.35
2023-02-08T07:34:34.495Z,-5.32
2023-02-08T07:37:02.877Z,-5.26
2023-02-08T07:39:31.345Z,-5.20
2023-02-08T07:41:59.239Z,-5.14
2023-02-08T07:44:30.828Z,-5.06
2023-02-08T07:46:58.636Z,-4.98
2023-02-08T07:49:26.493Z,-4.89
2023-02-08T07:51:55.612Z,-4.81
2023-02-08T07:54:23.487Z,-4.73
2023-02-08T07:56:51.349Z,-4.67
2023-02-08T07:59:19.466Z,-4.57
2023-02-08T08:01:47.351Z,-4.53
2023-02-08T08:04:15.181Z,-4.46
2023-02-08T08:06:43.017Z,-4.37
2023-02-08T08:09:12.145Z,-4.28
2023-02-08T08:11:39.846Z,-4.24
2023-02-08T08:14:07.570Z,-4.15
2023-02-08T08:16:35.367Z,-4.08
2023-02-08T08:19:03.180Z,-4.05
2023-02-08T08:21:30.930Z,-3.94
2023-02-08T08:23:58.729Z,-3.92
2023-02-08T08:26:29.681Z,-3.82
2023-02-08T08:28:57.742Z,-3.73
2023-02-08T08:31:25.733Z,-3.68
2023-02-08T08:33:53.579Z,-3.64
2023-02-08T08:36:21.368Z,-3.54
2023-02-08T08:38:49.107Z,-3.44
2023-02-08T08:41:18.892Z,-3.38
2023-02-08T08:43:48.071Z,-3.29
2023-02-08T08:46:16.682Z,-3.21
2023-02-08T08:48:45.650Z,-3.16
2023-02-08T08:51:14.128Z,-3.06
2023-02-08T08:53:41.934Z,-3.00
2023-02-08T08:56:09.662Z,-2.95
2023-02-08T08:58:37.377Z,-2.87
2023-02-08T09:01:06.789Z,-2.84
2023-02-08T09:03:34.980Z,-2.73
2023-02-08T09:06:02.801Z,-2.68
2023-02-08T09:08:30.567Z,-2.62
2023-02-08T09:10:58.353Z,-2.52
2023-02-08T09:13:26.086Z,-2.46
2023-02-08T09:15:53.857Z,-2.44
2023-02-08T09:18:23.038Z,-2.37
2023-02-08T09:20:50.790Z,-2.29
2023-02-08T09:23:18.567Z,-2.24
2023-02-08T09:25:46.815Z,-2.12
2023-02-08T09:28:15.660Z,-2.04
2023-02-08T09:30:44.011Z,-1.94
2023-02-08T09:33:11.999Z,-1.91
2023-02-08T09:35:41.364Z,-1.95
2023-02-08T09:38:09.318Z,-1.86
2023-02-08T09:40:46.637Z,-1.78
2023-02-08T09:43:23.314Z,-1.80
2023-02-08T09:46:00.258Z,-1.80
2023-02-08T09:48:32.587Z,-1.73
2023-02-08T09:51:08.246Z,-1.65
2023-02-08T09:53:40.279Z,-1.57
2023-02-08T09:56:12.776Z,-1.53
2023-02-08T09:58:44.022Z,-1.50
2023-02-08T10:01:19.167Z,-1.43
2023-02-08T10:03:48.104Z,-1.49
2023-02-08T10:06:19.024Z,-1.42
2023-02-08T10:08:49.619Z,-1.36
2023-02-08T10:11:36.164Z,-1.23
2023-02-08T10:14:24.608Z,-1.15
2023-02-08T10:17:01.311Z,-1.06
2023-02-08T10:19:41.082Z,-0.98
2023-02-08T10:22:27.138Z,-0.85
2023-02-08T10:25:17.696Z,-0.79
2023-02-08T10:27:57.769Z,-0.74
2023-02-08T10:30:40.946Z,-0.79
2023-02-08T10:33:17.893Z,-0.81
2023-02-08T10:35:48.491Z,-0.82
2023-02-08T10:38:29.654Z,-0.77
2023-02-08T10:41:05.401Z,-0.71
2023-02-08T10:43:40.419Z,-0.66
2023-02-08T10:46:17.312Z,-0.58
2023-02-08T10:48:56.283Z,-0.45
2023-02-08T10:51:24.055Z,-0.36
2023-02-08T10:53:54.826Z,-0.34
2023-02-08T10:56:45.467Z,-0.30
2023-02-08T10:59:18.376Z,-0.24
2023-02-08T11:01:48.203Z,-0.18
2023-02-08T11:04:16.788Z,-0.15
2023-02-08T11:06:46.974Z,-0.11
2023-02-08T11:09:28.959Z,-0.07
2023-02-08T11:11:58.793Z,0.01
2023-02-08T11:14:45.434Z,-0.02
2023-02-08T11:17:26.986Z,0.06
2023-02-08T11:19:55.498Z,0.13
2023-02-08T11:22:27.601Z,0.14
2023-02-08T11:25:00.082Z,0.17
2023-02-08T11:27:33.442Z,0.22
2023-02-08T11:30:23.510Z,0.27
2023-02-08T11:33:19.453Z,0.28
2023-02-08T11:36:14.270Z,0.35
2023-02-08T11:38:43.857Z,0.37
2023-02-08T11:41:19.919Z,0.34
2023-02-08T11:43:58.706Z,0.28
2023-02-08T11:46:28.621Z,0.37
2023-02-08T11:48:57.336Z,0.35
2023-02-08T11:51:28.979Z,0.39
2023-02-08T11:53:58.090Z,0.43
2023-02-08T11:56:29.631Z,0.53
2023-02-08T11:58:59.699Z,0.56
2023-02-08T12:01:30.117Z,0.65
2023-02-08T12:04:00.928Z,0.66
2023-02-08T12:06:45.638Z,0.73
2023-02-08T12:09:28.209Z,0.73
2023-02-08T12:12:10.876Z,0.80
2023-02-08T12:14:52.798Z,0.81
2023-02-08T12:17:39.853Z,0.86
2023-02-08T12:20:34.649Z,0.90
2023-02-08T12:23:21.239Z,0.98
2023-02-08T12:25:57.788Z,1.00
2023-02-08T12:28:43.476Z,1.09
2023-02-08T12:31:20.486Z,1.08
2023-02-08T12:33:59.563Z,1.17
2023-02-08T12:36:45.798Z,1.18
2023-02-08T12:39:45.232Z,1.16
2023-02-08T12:42:26.896Z,1.13
2023-02-08T12:45:25.868Z,1.21
2023-02-08T12:48:05.150Z,1.31
2023-02-08T12:50:42.007Z,1.36
2023-02-08T12:53:18.803Z,1.39
2023-02-08T12:55:49.853Z,1.39
2023-02-08T12:58:29.102Z,1.42
2023-02-08T13:01:03.100Z,1.36
2023-02-08T13:03:37.580Z,1.42
2023-02-08T13:06:09.450Z,1.45
2023-02-08T13:08:42.072Z,1.41
2023-02-08T13:11:20.050Z,1.49
2023-02-08T13:13:57.991Z,1.48
2023-02-08T13:16:33.966Z,1.51
2023-02-08T13:19:24.987Z,1.45
2023-02-08T13:21:55.017Z,1.39
2023-02-08T13:24:37.515Z,1.31
2023-02-08T13:27:07.333Z,1.37
2023-02-08T13:29:36.261Z,1.25
2023-02-08T13:32:10.930Z,1.29
2023-02-08T13:34:44.650Z,1.32
2023-02-08T13:37:26.767Z,1.33
2023-02-08T13:40:03.919Z,1.28
2023-02-08T13:42:37.099Z,1.28
2023-02-08T13:45:07.320Z,1.31
2023-02-08T13:47:44.774Z,1.12
2023-02-08T13:50:41.152Z,1.19
2023-02-08T13:53:09.422Z,1.22
2023-02-08T13:55:45.895Z,1.23
2023-02-08T13:58:37.325Z,1.23
2023-02-08T14:01:24.219Z,1.22
2023-02-08T14:04:29.373Z,1.17
2023-02-08T14:07:02.258Z,1.18
2023-02-08T14:09:43.965Z,1.17
2023-02-08T14:12:17.058Z,1.15
2023-02-08T14:14:44.852Z,1.12
2023-02-08T14:17:21.001Z,1.13
2023-02-08T14:20:00.756Z,1.15
2023-02-08T14:22:33.316Z,1.15
2023-02-08T14:25:03.878Z,1.17
2023-02-08T14:27:37.823Z,1.16
2023-02-08T14:30:09.224Z,1.16
2023-02-08T14:32:39.729Z,1.11
2023-02-08T14:35:19.017Z,1.12
2023-02-08T14:37:46.789Z,1.08
2023-02-08T14:40:48.041Z,0.98
2023-02-08T14:43:34.075Z,0.93
2023-02-08T14:46:41.969Z,0.91
2023-02-08T14:49:12.973Z,0.86
2023-02-08T14:51:46.381Z,0.80
2023-02-08T14:54:23.004Z,0.72
2023-02-08T14:56:58.353Z,0.68
2023-02-08T14:59:29.684Z,0.64
2023-02-08T15:02:00.943Z,0.60
2023-02-08T15:04:29.401Z,0.57
2023-02-08T15:07:31.293Z,0.53
2023-02-08T15:10:04.435Z,0.44
2023-02-08T15:12:35.846Z,0.40
2023-02-08T15:15:05.907Z,0.42
2023-02-08T15:17:37.805Z,0.36
2023-02-08T15:20:08.392Z,0.35
2023-02-08T15:22:39.832Z,0.29
2023-02-08T15:25:26.248Z,0.26
2023-02-08T15:27:56.892Z,0.19
2023-02-08T15:30:26.576Z,0.18
2023-02-08T15:32:54.796Z,0.11
2023-02-08T15:35:24.187Z,0.07
2023-02-08T15:37:54.331Z,0.00
2023-02-08T15:40:28.667Z,-0.06
2023-02-08T15:43:03.067Z,-0.11
2023-02-08T15:45:31.205Z,-0.18
2023-02-08T15:47:59.821Z,-0.17
2023-02-08T15:50:29.689Z,-0.20
2023-02-08T15:53:01.457Z,-0.23
2023-02-08T15:55:34.482Z,-0.27
2023-02-08T15:58:07.081Z,-0.31
2023-02-08T16:00:38.219Z,-0.33
2023-02-08T16:03:16.974Z,-0.37
2023-02-08T16:05:51.232Z,-0.41
2023-02-08T16:08:27.810Z,-0.45
2023-02-08T16:10:59.940Z,-0.49
2023-02-08T16:13:36.947Z,-0.54
2023-02-08T16:16:17.858Z,-0.57
2023-02-08T16:18:50.858Z,-0.61
2023-02-08T16:21:31.020Z,-0.67
2023-02-08T16:24:01.625Z,-0.66
2023-02-08T16:26:35.846Z,-0.67
2023-02-08T16:29:06.109Z,-0.74
2023-02-08T16:31:36.660Z,-0.77
2023-02-08T16:34:22.715Z,-0.77
2023-02-08T16:36:56.084Z,-0.79
2023-02-08T16:39:53.513Z,-0.80
2023-02-08T16:42:39.351Z,-0.84
2023-02-08T16:45:25.034Z,-0.92
2023-02-08T16:47:56.761Z,-0.92
2023-02-08T16:50:27.033Z,-0.92
2023-02-08T16:52:57.266Z,-0.97
2023-02-08T16:55:29.300Z,-1.01
2023-02-08T16:57:59.158Z,-0.99
2023-02-08T17:00:31.777Z,-0.98
2023-02-08T17:02:59.904Z,-1.00
2023-02-08T17:05:30.615Z,-1.06
2023-02-08T17:08:01.002Z,-1.07
2023-02-08T17:10:33.988Z,-1.08
2023-02-08T17:13:19.830Z,-1.21
2023-02-08T17:15:50.731Z,-1.20
2023-02-08T17:18:21.906Z,-1.23
2023-02-08T17:20:49.693Z,-1.21
2023-02-08T17:23:17.566Z,-1.22
2023-02-08T17:25:51.411Z,-1.26
2023-02-08T17:28:22.113Z,-1.27
2023-02-08T17:30:50.836Z,-1.31
2023-02-08T17:33:21.370Z,-1.34
2023-02-08T17:35:51.253Z,-1.39
2023-02-08T17:38:19.409Z,-1.40
2023-02-08T17:40:48.738Z,-1.45
2023-02-08T17:43:16.886Z,-1.43
2023-02-08T17:45:45.626Z,-1.45
2023-02-08T17:48:14.551Z,-1.46
2023-02-08T17:50:43.836Z,-1.49
2023-02-08T17:53:13.925Z,-1.50
2023-02-08T17:55:43.400Z,-1.51
2023-02-08T17:58:13.380Z,-1.60
2023-02-08T18:00:41.566Z,-1.61
2023-02-08T18:03:13.351Z,-1.64
2023-02-08T18:05:41.169Z,-1.72
2023-02-08T18:08:09.027Z,-1.78
2023-02-08T18:10:36.838Z,-1.73
2023-02-08T18:13:04.693Z,-1.83
2023-02-08T18:15:35.224Z,-1.89
2023-02-08T18:18:03.229Z,-1.88
2023-02-08T18:20:32.024Z,-1.92
2023-02-08T18:22:59.793Z,-1.97
2023-02-08T18:25:27.667Z,-1.99
2023-02-08T18:27:56.863Z,-2.07
2023-02-08T18:30:25.547Z,-2.09
2023-02-08T18:32:54.734Z,-2.16
2023-02-08T18:35:22.590Z,-2.28
2023-02-08T18:37:50.362Z,-2.29
2023-02-08T18:40:18.787Z,-2.37
2023-02-08T18:42:48.796Z,-2.40
2023-02-08T18:45:16.522Z,-2.42
2023-02-08T18:47:45.317Z,-2.41
2023-02-08T18:50:14.518Z,-2.34
2023-02-08T18:52:42.348Z,-2.38
2023-02-08T18:55:10.206Z,-2.39
2023-02-08T18:57:39.852Z,-2.41
2023-02-08T19:00:08.650Z,-2.46
2023-02-08T19:02:38.628Z,-2.52
2023-02-08T19:05:08.233Z,-2.51
2023-02-08T19:07:38.729Z,-2.50
2023-02-08T19:10:07.791Z,-2.50
2023-02-08T19:12:38.356Z,-2.42
2023-02-08T19:15:06.765Z,-2.37
2023-02-08T19:17:34.523Z,-2.42
2023-02-08T19:20:03.715Z,-2.52
2023-02-08T19:22:31.515Z,-2.57
2023-02-08T19:25:00.642Z,-2.57
2023-02-08T19:27:29.541Z,-2.60
2023-02-08T19:29:57.486Z,-2.57
2023-02-08T19:32:25.241Z,-2.66
2023-02-08T19:34:52.944Z,-2.68
2023-02-08T19:37:20.906Z,-2.74
2023-02-08T19:39:48.908Z,-2.73
2023-02-08T19:42:18.077Z,-2.78
2023-02-08T19:44:45.872Z,-2.81
2023-02-08T19:47:15.848Z,-2.83
2023-02-08T19:49:43.696Z,-2.87
2023-02-08T19:52:11.551Z,-2.90
2023-02-08T19:54:39.271Z,-2.92
2023-02-08T19:57:11.539Z,-2.97
2023-02-08T19:59:40.947Z,-3.04
2023-02-08T20:02:12.224Z,-3.04
2023-02-08T20:04:40.802Z,-3.05
2023-02-08T20:07:09.384Z,-3.05
2023-02-08T20:09:37.249Z,-3.14
2023-02-08T20:12:05.425Z,-3.18
2023-02-08T20:14:34.510Z,-3.21
2023-02-08T20:17:04.086Z,-3.27
2023-02-08T20:19:31.925Z,-3.30
2023-02-08T20:21:59.631Z,-3.32
2023-02-08T20:24:27.501Z,-3.33
2023-02-08T20:26:55.289Z,-3.29
2023-02-08T20:29:23.110Z,-3.29
2023-02-08T20:31:55.505Z,-3.34
2023-02-08T20:34:25.215Z,-3.33
2023-02-08T20:37:06.452Z,-3.41
2023-02-08T20:39:35.650Z,-3.44
2023-02-08T20:42:05.298Z,-3.52
2023-02-08T20:44:33.404Z,-3.52
2023-02-08T20:47:01.372Z,-3.50
2023-02-08T20:49:32.177Z,-3.55
2023-02-08T20:52:00.029Z,-3.57
2023-02-08T20:54:30.272Z,-3.58
2023-02-08T20:56:58.814Z,-3.62
2023-02-08T20:59:26.566Z,-3.64
2023-02-08T21:01:54.720Z,-3.66
2023-02-08T21:04:23.787Z,-3.67
2023-02-08T21:06:53.192Z,-3.74
2023-02-08T21:09:21.752Z,-3.79
2023-02-08T21:11:50.842Z,-3.85
2023-02-08T21:14:20.829Z,-3.89
2023-02-08T21:16:51.272Z,-3.96
2023-02-08T21:19:20.623Z,-4.09
2023-02-08T21:21:51.462Z,-4.09
2023-02-08T21:24:21.265Z,-4.16
2023-02-08T21:26:49.044Z,-4.26
2023-02-08T21:29:17.068Z,-4.32
2023-02-08T21:31:45.488Z,-4.37
2023-02-08T21:34:13.781Z,-4.44
2023-02-08T21:36:41.601Z,-4.59
2023-02-08T21:39:09.704Z,-4.60
2023-02-08T21:41:38.939Z,-4.64
2023-02-08T21:44:10.530Z,-4.65
2023-02-08T21:46:39.577Z,-4.68
2023-02-08T21:49:25.462Z,-4.84
2023-02-08T21:52:10.521Z,-4.86
2023-02-08T21:54:45.470Z,-4.87
2023-02-08T21:57:18.766Z,-4.86
2023-02-08T21:59:47.917Z,-4.96
2023-02-08T22:02:21.695Z,-4.98
2023-02-08T22:04:50.174Z,-5.02
2023-02-08T22:07:18.315Z,-5.04
2023-02-08T22:09:46.188Z,-5.05
2023-02-08T22:12:17.657Z,-5.09
2023-02-08T22:14:45.527Z,-5.09
2023-02-08T22:17:13.590Z,-5.14
2023-02-08T22:19:42.871Z,-5.17
2023-02-08T22:22:14.379Z,-5.19
2023-02-08T22:24:42.634Z,-5.19
2023-02-08T22:27:10.791Z,-5.25
2023-02-08T22:29:40.101Z,-5.29
2023-02-08T22:32:09.842Z,-5.35
2023-02-08T22:34:38.183Z,-5.34
2023-02-08T22:37:05.986Z,-5.36
2023-02-08T22:39:34.167Z,-5.42
2023-02-08T22:42:03.304Z,-5.43
2023-02-08T22:44:31.122Z,-5.43
2023-02-08T22:47:02.147Z,-5.45
2023-02-08T22:49:30.706Z,-5.54
2023-02-08T22:51:59.707Z,-5.61
2023-02-08T22:54:27.870Z,-5.63
2023-02-08T22:56:55.677Z,-5.63
2023-02-08T22:59:23.453Z,-5.57
2023-02-08T23:01:51.301Z,-5.63
2023-02-08T23:04:20.455Z,-5.67
2023-02-08T23:06:48.536Z,-5.61
2023-02-08T23:09:16.284Z,-5.72
2023-02-08T23:11:44.143Z,-5.79
2023-02-08T23:14:11.993Z,-5.77
2023-02-08T23:16:39.731Z,-5.74
2023-02-08T23:19:07.523Z,-5.79
2023-02-08T23:21:38.955Z,-5.80
2023-02-08T23:24:07.895Z,-5.85
2023-02-08T23:26:35.886Z,-5.83
2023-02-08T23:29:03.759Z,-5.83
2023-02-08T23:31:31.797Z,-5.81
2023-02-08T23:34:00.305Z,-5.78
2023-02-08T23:36:28.808Z,-5.77
2023-02-08T23:39:00.542Z,-5.92
2023-02-08T23:41:29.309Z,-5.99
2023-02-08T23:43:58.003Z,-6.00
2023-02-08T23:46:28.127Z,-6.00
2023-02-08T23:48:56.379Z,-6.02
2023-02-08T23:51:25.914Z,-6.01
2023-02-08T23:53:56.092Z,-5.98
2023-02-08T23:56:26.634Z,-6.02
2023-02-08T23:58:56.022Z,-6.02
